Time;durP1;ratioP1;P1;durP2;ratioP2;P2;SDS_P1;SDS_P2;PMS_P1;PMS_P2;Temp;Humidity;BMP_temperature;BMP_pressure;BME280_temperature;BME280_humidity;BME280_pressure;Samples;Min_cycle;Max_cycle;Signal;HPM_P1;HPM_P2
2021/06/19 00:02:02;;;;;;;8.23;4.88;;;15.50;99.90;;;;;;5048716;28;20139;-81
2021/06/19 00:04:31;;;;;;;8.68;4.85;;;15.50;99.90;;;;;;5045366;28;20408;-82
2021/06/19 00:07:03;;;;;;;9.35;5.20;;;15.50;99.90;;;;;;5029886;28;20056;-81
2021/06/19 00:09:31;;;;;;;8.07;4.75;;;15.50;99.90;;;;;;5046600;28;20492;-82
2021/06/19 00:11:58;;;;;;;7.57;4.68;;;15.50;99.90;;;;;;5047116;28;20044;-82
2021/06/19 00:14:25;;;;;;;6.40;4.80;;;15.60;99.90;;;;;;5030635;28;20046;-81
2021/06/19 00:16:53;;;;;;;7.35;3.90;;;15.50;99.90;;;;;;5031623;28;20103;-82
2021/06/19 00:19:20;;;;;;;6.80;3.92;;;15.60;99.90;;;;;;5029131;28;20398;-82
2021/06/19 00:21:47;;;;;;;8.18;4.22;;;15.50;99.90;;;;;;5023686;28;20487;-82
2021/06/19 00:24:24;;;;;;;5.68;4.30;;;15.60;99.90;;;;;;5048361;28;20045;-83
2021/06/19 00:26:52;;;;;;;6.93;4.30;;;15.60;99.90;;;;;;5050344;28;20067;-82
2021/06/19 00:29:19;;;;;;;5.70;4.40;;;15.60;99.90;;;;;;5049759;28;20057;-82
2021/06/19 00:31:46;;;;;;;5.55;4.50;;;15.60;99.90;;;;;;5049230;28;20554;-83
2021/06/19 00:34:13;;;;;;;8.25;5.30;;;15.60;99.90;;;;;;5047447;28;20052;-82
2021/06/19 00:36:40;;;;;;;6.78;4.97;;;15.70;99.90;;;;;;5050254;28;20057;-82
2021/06/19 00:39:07;;;;;;;7.03;4.93;;;15.60;99.90;;;;;;5028454;28;20053;-83
2021/06/19 00:41:35;;;;;;;8.60;5.10;;;15.60;99.90;;;;;;5050927;28;20084;-82
2021/06/19 00:44:03;;;;;;;8.80;5.83;;;15.70;99.90;;;;;;5052144;28;20094;-83
2021/06/19 00:46:30;;;;;;;8.32;5.40;;;15.60;99.90;;;;;;5031360;28;20422;-82
2021/06/19 00:48:57;;;;;;;8.20;5.07;;;15.60;99.90;;;;;;5050510;28;20120;-82
2021/06/19 00:51:24;;;;;;;11.68;5.75;;;15.60;99.90;;;;;;5032184;28;20057;-83
2021/06/19 00:53:52;;;;;;;8.15;5.70;;;15.50;99.90;;;;;;5032134;28;20048;-83
2021/06/19 00:56:19;;;;;;;;;;;15.50;99.90;;;;;;5032737;28;20417;-83
2021/06/19 00:58:46;;;;;;;9.88;6.10;;;15.50;99.90;;;;;;5051363;28;19932;-83
2021/06/19 01:01:14;;;;;;;11.30;5.90;;;15.50;99.90;;;;;;5048314;28;20049;-83
2021/06/19 01:03:42;;;;;;;9.85;6.90;;;15.40;99.90;;;;;;5027117;28;20053;-85
2021/06/19 01:06:08;;;;;;;10.37;6.67;;;15.40;99.90;;;;;;5049690;28;20111;-82
2021/06/19 01:08:36;;;;;;;11.73;6.65;;;15.40;99.90;;;;;;5050098;28;20053;-82
2021/06/19 01:11:03;;;;;;;12.43;6.85;;;15.40;99.90;;;;;;5034094;28;20095;-83
2021/06/19 01:13:30;;;;;;;10.23;5.80;;;15.40;99.90;;;;;;5050383;28;20053;-82
2021/06/19 01:16:00;;;;;;;12.82;7.20;;;15.40;99.90;;;;;;5048181;28;20080;-83
2021/06/19 01:18:37;;;;;;;12.52;6.50;;;15.30;99.90;;;;;;5048265;28;20132;-83
2021/06/19 01:21:21;;;;;;;9.90;6.95;;;15.40;99.90;;;;;;5031997;28;20515;-82
2021/06/19 01:23:49;;;;;;;11.50;6.72;;;15.30;99.90;;;;;;5030904;28;20527;-82
2021/06/19 01:26:22;;;;;;;7.35;6.18;;;15.30;99.90;;;;;;5049352;28;20511;-82
2021/06/19 01:28:50;;;;;;;10.80;6.93;;;15.30;99.90;;;;;;5051714;28;20057;-82
2021/06/19 07:31:01;;;;;;;7.38;5.60;;;17.80;99.90;;;;;;6141384;22;20016;31
2021/06/19 07:33:28;;;;;;;7.47;5.38;;;17.90;99.90;;;;;;4893551;29;20551;-83
2021/06/19 07:35:55;;;;;;;8.77;5.53;;;18.00;99.90;;;;;;4898567;29;20107;-83
2021/06/19 07:38:22;;;;;;;7.75;5.63;;;18.10;99.90;;;;;;4894320;29;20112;-82
2021/06/19 07:40:49;;;;;;;8.07;5.10;;;18.20;99.90;;;;;;4913323;29;20129;-82
2021/06/19 07:43:16;;;;;;;7.63;5.03;;;18.30;99.90;;;;;;4910753;29;20044;-87
2021/06/19 07:45:43;;;;;;;7.72;4.57;;;18.40;99.90;;;;;;4912505;29;20051;-83
2021/06/19 07:48:10;;;;;;;8.77;5.13;;;18.40;99.90;;;;;;4897078;29;20156;-82
2021/06/19 07:50:39;;;;;;;6.72;4.43;;;18.40;99.90;;;;;;4903586;29;20067;-83
2021/06/19 07:53:05;;;;;;;8.60;4.90;;;18.50;99.90;;;;;;4910808;29;20048;-83
2021/06/19 07:55:32;;;;;;;9.43;5.15;;;18.60;99.90;;;;;;4896889;29;20404;-83
2021/06/19 07:57:59;;;;;;;10.35;5.07;;;18.70;99.90;;;;;;4913254;29;20107;-83
2021/06/19 08:00:29;;;;;;;8.77;4.78;;;18.70;99.90;;;;;;4901761;29;20075;-83
2021/06/19 08:02:58;;;;;;;6.05;4.15;;;18.70;99.90;;;;;;4912352;29;20104;-82
2021/06/19 08:05:26;;;;;;;7.47;4.30;;;18.80;99.90;;;;;;4914963;29;20391;-83
2021/06/19 08:07:53;;;;;;;7.97;4.50;;;18.90;99.90;;;;;;4896516;29;20110;-83
2021/06/19 08:10:21;;;;;;;6.53;4.70;;;19.00;99.90;;;;;;4915387;29;20135;-86
2021/06/19 08:12:50;;;;;;;6.35;4.47;;;19.10;99.90;;;;;;4912569;29;20438;-84
2021/06/19 08:15:19;;;;;;;5.57;4.07;;;19.20;99.90;;;;;;4910369;29;20056;-83
2021/06/19 08:17:47;;;;;;;8.38;3.63;;;19.20;99.90;;;;;;4911235;29;20555;-83
2021/06/19 08:20:15;;;;;;;6.00;4.07;;;19.30;99.90;;;;;;4901684;29;20063;-83
2021/06/19 08:22:42;;;;;;;6.15;3.83;;;19.40;99.90;;;;;;4916403;29;20062;-84
2021/06/19 08:25:10;;;;;;;5.15;3.38;;;19.40;99.90;;;;;;4898370;29;20060;-85
2021/06/19 08:27:38;;;;;;;6.88;3.97;;;19.50;99.90;;;;;;4911542;29;20080;-84
2021/06/19 08:30:06;;;;;;;4.63;3.58;;;19.60;99.90;;;;;;4898975;29;20124;-84
2021/06/19 08:32:33;;;;;;;4.88;3.35;;;19.70;99.90;;;;;;4934335;29;20091;-84
2021/06/19 08:35:00;;;;;;;4.20;3.10;;;19.80;99.90;;;;;;4916610;29;20522;-84
2021/06/19 08:37:27;;;;;;;4.10;2.95;;;19.90;99.90;;;;;;4923478;29;20055;-84
2021/06/19 08:39:57;;;;;;;4.85;3.15;;;19.90;99.90;;;;;;4930235;29;20111;-84
2021/06/19 08:42:25;;;;;;;8.75;3.20;;;19.90;99.90;;;;;;4909854;29;20483;-82
2021/06/19 08:44:56;;;;;;;4.80;3.83;;;19.90;99.90;;;;;;4915890;29;20064;-85
2021/06/19 08:47:24;;;;;;;6.10;4.10;;;19.90;99.90;;;;;;4912411;29;20059;-84
2021/06/19 08:49:54;;;;;;;5.65;3.10;;;19.80;99.90;;;;;;4915477;29;20056;-83
2021/06/19 08:52:22;;;;;;;6.32;3.42;;;19.80;99.90;;;;;;4912412;29;20471;-82
2021/06/19 08:54:49;;;;;;;3.77;3.10;;;19.70;99.90;;;;;;4930297;29;20055;-83
2021/06/19 08:57:16;;;;;;;5.57;3.33;;;19.70;99.90;;;;;;4933004;29;20575;-81
2021/06/19 08:59:48;;;;;;;8.02;3.60;;;19.60;99.90;;;;;;4933895;29;20146;-83
2021/06/19 09:02:16;;;;;;;6.80;3.70;;;19.50;99.90;;;;;;4932487;29;20115;-80
2021/06/19 09:05:07;;;;;;;5.78;3.70;;;19.50;99.90;;;;;;4917597;29;20391;-81
2021/06/19 09:07:47;;;;;;;6.72;3.60;;;19.40;99.90;;;;;;4915841;29;20052;-81
2021/06/19 09:10:34;;;;;;;5.18;3.75;;;19.30;99.90;;;;;;4934572;29;20063;-81
2021/06/19 09:13:13;;;;;;;5.97;3.75;;;19.20;99.90;;;;;;4920368;29;20055;-82
2021/06/19 09:15:48;;;;;;;4.97;3.55;;;19.20;99.90;;;;;;4930599;28;20581;-82
2021/06/19 09:18:23;;;;;;;6.43;3.60;;;19.10;99.90;;;;;;4932049;29;20054;-84
2021/06/19 09:20:54;;;;;;;6.18;3.83;;;19.10;99.90;;;;;;4931633;29;20094;-83
2021/06/19 09:23:37;;;;;;;5.90;3.80;;;19.00;99.90;;;;;;4913881;29;20517;-82
2021/06/19 09:26:05;;;;;;;5.60;3.65;;;19.00;99.90;;;;;;4932774;28;20059;-82
2021/06/19 09:28:32;;;;;;;4.75;4.20;;;19.00;99.90;;;;;;4933450;29;20048;-82
2021/06/19 09:30:59;;;;;;;6.20;3.42;;;19.00;99.90;;;;;;4917267;29;20060;-82
2021/06/19 09:33:26;;;;;;;9.70;4.32;;;19.00;99.90;;;;;;4911391;29;20590;-80
2021/06/19 09:35:53;;;;;;;4.10;3.05;;;19.00;99.90;;;;;;4913811;29;20088;-82
2021/06/19 09:38:20;;;;;;;5.15;3.20;;;19.00;99.90;;;;;;4912991;29;20056;-81
2021/06/19 09:40:48;;;;;;;4.18;3.00;;;19.00;99.90;;;;;;4901122;29;20049;-81
2021/06/19 09:43:25;;;;;;;5.65;2.50;;;19.10;99.90;;;;;;4896826;29;20535;-81
2021/06/19 09:46:04;;;;;;;3.80;2.63;;;19.20;99.90;;;;;;4914241;29;20052;-82
2021/06/19 09:48:34;;;;;;;5.82;2.83;;;19.20;99.90;;;;;;4907714;29;20052;-81
2021/06/19 09:51:16;;;;;;;5.43;2.78;;;19.20;99.90;;;;;;4899451;29;20067;-82
2021/06/19 09:53:49;;;;;;;4.35;2.70;;;19.10;99.90;;;;;;4913930;29;20586;-82
2021/06/19 09:56:21;;;;;;;5.72;2.53;;;19.10;99.90;;;;;;4915473;29;20467;-81
2021/06/19 09:58:55;;;;;;;4.57;3.03;;;19.10;99.90;;;;;;4896369;29;20144;-81
2021/06/19 10:01:39;;;;;;;4.60;2.60;;;19.00;99.90;;;;;;4900702;29;20063;-81
2021/06/19 10:04:09;;;;;;;3.97;2.83;;;19.00;99.90;;;;;;4899589;29;20044;-81
2021/06/19 10:06:36;;;;;;;4.60;3.53;;;19.00;99.90;;;;;;4905078;29;20088;-81
2021/06/19 10:09:05;;;;;;;4.68;3.22;;;19.00;99.90;;;;;;4913055;29;20048;-85
2021/06/19 10:11:32;;;;;;;5.05;3.53;;;18.90;99.90;;;;;;4902545;29;20100;-82
2021/06/19 10:14:00;;;;;;;5.10;3.53;;;18.90;99.90;;;;;;4914013;29;20060;-84
2021/06/19 10:16:29;;;;;;;4.60;3.30;;;18.90;99.90;;;;;;4896652;29;20044;-81
2021/06/19 10:18:57;;;;;;;5.60;3.38;;;19.00;99.90;;;;;;4897833;29;20052;-82
2021/06/19 10:21:26;;;;;;;4.30;3.25;;;19.00;99.90;;;;;;4896366;29;20109;-83
2021/06/19 10:23:54;;;;;;;4.72;3.38;;;19.20;99.90;;;;;;4912747;29;20048;-82
2021/06/19 10:26:24;;;;;;;5.35;3.85;;;19.30;99.90;;;;;;4906770;29;20056;-82
2021/06/19 10:28:58;;;;;;;6.32;3.40;;;19.40;99.90;;;;;;4897662;29;20511;-81
2021/06/19 10:31:26;;;;;;;5.78;3.65;;;19.50;99.90;;;;;;4899042;29;20055;-83
2021/06/19 10:33:54;;;;;;;5.55;3.38;;;19.50;99.90;;;;;;4901116;29;20056;-81
2021/06/19 10:36:36;;;;;;;4.25;3.55;;;19.60;99.90;;;;;;4901941;29;20508;-82
2021/06/19 10:39:04;;;;;;;5.00;3.47;;;19.50;99.90;;;;;;4918092;29;20574;-81
2021/06/19 10:41:51;;;;;;;4.55;3.42;;;19.50;99.90;;;;;;4913168;29;20088;-82
2021/06/19 10:44:51;;;;;;;6.07;3.83;;;19.50;99.90;;;;;;4902090;29;20056;-82
2021/06/19 10:47:20;;;;;;;4.28;3.45;;;19.40;99.90;;;;;;4894945;29;20056;-82
2021/06/19 10:49:47;;;;;;;6.15;4.03;;;19.40;99.90;;;;;;4908516;29;20581;-82
2021/06/19 10:52:29;;;;;;;4.32;3.88;;;19.40;99.90;;;;;;4917566;29;20108;-81
2021/06/19 10:55:26;;;;;;;4.43;3.92;;;19.40;99.90;;;;;;4911947;29;20116;-82
2021/06/19 10:57:56;;;;;;;5.50;4.05;;;19.60;99.90;;;;;;4889913;29;20123;-82
2021/06/19 11:00:26;;;;;;;4.95;3.70;;;19.70;99.90;;;;;;4899006;29;20586;-82
2021/06/19 11:02:56;;;;;;;4.07;3.60;;;19.70;99.90;;;;;;4910429;29;20080;-82
2021/06/19 11:05:41;;;;;;;4.00;3.58;;;19.80;99.90;;;;;;4912328;29;20064;-81
2021/06/19 11:08:15;;;;;;;5.32;3.72;;;19.80;99.90;;;;;;4896403;29;20848;-81
2021/06/19 11:10:48;;;;;;;4.75;3.42;;;19.70;99.90;;;;;;4903442;29;20048;-83
2021/06/19 11:13:27;;;;;;;6.40;3.85;;;19.70;99.90;;;;;;4912259;29;20467;-82
2021/06/19 11:16:32;;;;;;;8.90;3.88;;;19.70;99.90;;;;;;4907013;29;20090;-82
2021/06/19 11:18:59;;;;;;;4.35;3.63;;;19.80;99.90;;;;;;4804653;29;20144;-81
2021/06/19 11:21:28;;;;;;;4.80;3.67;;;19.80;99.90;;;;;;4787539;29;20111;-82
2021/06/19 11:24:01;;;;;;;3.97;3.58;;;19.80;99.90;;;;;;4785572;29;20050;-83
2021/06/19 11:26:55;;;;;;;5.70;4.28;;;19.80;99.90;;;;;;4810840;29;20053;-83
2021/06/19 11:29:41;;;;;;;4.38;3.78;;;19.80;99.90;;;;;;4804545;29;20590;-82
2021/06/19 11:32:28;;;;;;;;;;;19.70;99.90;;;;;;4798796;29;20141;-82
2021/06/19 11:34:58;;;;;;;6.57;3.70;;;19.60;99.90;;;;;;4822816;29;19948;-82
2021/06/19 11:37:50;;;;;;;3.95;3.42;;;19.60;99.90;;;;;;4817707;29;20161;-82
2021/06/19 11:40:28;;;;;;;5.22;3.63;;;19.50;99.90;;;;;;4819935;29;20054;-82
2021/06/19 11:42:54;;;;;;;6.15;3.70;;;19.50;99.90;;;;;;4802577;29;20144;-82
2021/06/19 11:45:22;;;;;;;5.03;3.00;;;19.40;99.90;;;;;;4817411;29;20042;-82
2021/06/19 11:48:01;;;;;;;6.63;3.40;;;19.40;99.90;;;;;;4802827;29;20058;-82
2021/06/19 11:50:40;;;;;;;4.43;4.03;;;19.50;99.90;;;;;;4817612;29;20159;-82
2021/06/19 11:53:34;;;;;;;4.22;3.30;;;19.50;99.90;;;;;;4818348;29;20088;-82
2021/06/19 11:56:09;;;;;;;4.85;3.63;;;19.60;99.90;;;;;;4873472;29;20570;-82
2021/06/19 11:58:51;;;;;;;6.53;3.67;;;19.70;99.90;;;;;;4911894;29;20052;-82
2021/06/19 12:01:21;;;;;;;4.05;3.00;;;19.80;99.90;;;;;;4915068;29;20551;-82
2021/06/19 12:03:49;;;;;;;5.03;3.40;;;19.80;99.90;;;;;;4896195;29;20079;-81
2021/06/19 12:06:16;;;;;;;3.85;3.40;;;19.80;99.90;;;;;;4912110;29;20060;-83
2021/06/19 12:08:44;;;;;;;3.40;3.05;;;19.80;99.90;;;;;;4912446;29;20040;-82
2021/06/19 12:11:10;;;;;;;3.75;3.20;;;19.80;99.90;;;;;;4895038;29;20108;-82
2021/06/19 12:13:42;;;;;;;4.47;3.10;;;19.80;99.90;;;;;;4906472;29;20056;-83
2021/06/19 12:16:10;;;;;;;6.78;3.72;;;19.80;99.90;;;;;;4909844;29;20131;-83
2021/06/19 12:18:36;;;;;;;4.07;3.20;;;19.70;99.90;;;;;;4912372;29;20064;-83
2021/06/19 12:21:08;;;;;;;6.07;3.58;;;19.60;99.90;;;;;;4898638;29;20047;-83
2021/06/19 12:23:41;;;;;;;5.15;2.92;;;19.60;99.90;;;;;;4912935;29;20056;-83
2021/06/19 12:26:08;;;;;;;4.90;3.33;;;19.50;99.90;;;;;;4914900;29;20452;-83
2021/06/19 12:28:42;;;;;;;6.07;3.38;;;19.50;99.90;;;;;;4911472;29;20135;-83
2021/06/19 12:31:09;;;;;;;4.15;3.13;;;19.40;99.90;;;;;;4918310;29;20055;-83
2021/06/19 12:33:36;;;;;;;5.18;3.10;;;19.40;99.90;;;;;;4920061;29;20131;-83
2021/06/19 12:36:07;;;;;;;5.32;3.50;;;19.40;99.90;;;;;;4917789;29;20422;-83
2021/06/19 12:38:35;;;;;;;5.97;3.17;;;19.40;99.90;;;;;;4917893;29;20507;-82
2021/06/19 12:41:05;;;;;;;2.95;2.70;;;19.50;99.90;;;;;;4919177;29;20099;-83
2021/06/19 12:43:32;;;;;;;3.45;2.70;;;19.80;99.90;;;;;;4933473;29;20047;-82
2021/06/19 12:45:59;;;;;;;4.55;2.90;;;20.20;99.90;;;;;;4932213;29;20060;-83
2021/06/19 12:48:29;;;;;;;3.80;2.90;;;20.50;99.90;;;;;;4913280;29;20078;-83
2021/06/19 12:50:58;;;;;;;3.42;2.10;;;20.70;99.90;;;;;;4918208;29;20462;-81
2021/06/19 12:53:29;;;;;;;2.72;2.28;;;20.90;99.90;;;;;;4931116;29;20063;-84
2021/06/19 12:55:58;;;;;;;4.82;3.00;;;21.10;99.90;;;;;;4934400;29;20116;-81
2021/06/19 12:58:47;;;;;;;3.28;2.72;;;21.20;99.90;;;;;;4931506;29;20055;-82
2021/06/19 13:01:21;;;;;;;4.07;2.35;;;21.30;99.90;;;;;;4918586;29;20098;-83
2021/06/19 13:03:52;;;;;;;3.67;2.40;;;21.30;99.90;;;;;;4933306;29;20107;-83
2021/06/19 13:06:32;;;;;;;3.20;2.40;;;21.30;99.90;;;;;;4933073;29;20459;-83
2021/06/19 13:09:23;;;;;;;3.05;2.20;;;21.20;99.90;;;;;;4933625;29;20545;-84
2021/06/19 13:11:57;;;;;;;2.40;1.95;;;21.10;99.90;;;;;;4919786;29;20055;-84
2021/06/19 13:14:25;;;;;;;2.97;2.10;;;21.10;99.90;;;;;;4916594;29;20064;-82
2021/06/19 13:16:55;;;;;;;3.77;2.53;;;21.10;99.90;;;;;;4938851;29;20043;-80
2021/06/19 13:19:31;;;;;;;7.60;3.10;;;21.10;99.90;;;;;;4925893;29;20192;-86
2021/06/19 13:21:59;;;;;;;4.65;2.65;;;20.90;99.90;;;;;;4915574;29;20103;-85
2021/06/19 13:24:31;;;;;;;6.87;3.50;;;20.80;99.90;;;;;;4917813;29;20131;-83
2021/06/19 13:27:16;;;;;;;6.88;3.00;;;20.60;99.90;;;;;;4914033;29;20729;-83
2021/06/19 13:29:56;;;;;;;5.00;3.35;;;20.40;99.90;;;;;;4920940;29;20078;-84
2021/06/19 13:32:23;;;;;;;3.92;3.10;;;20.20;99.90;;;;;;4928629;29;20198;-82
2021/06/19 13:34:59;;;;;;;6.38;3.65;;;20.00;99.90;;;;;;4917675;29;20055;-82
2021/06/19 13:37:36;;;;;;;4.22;3.65;;;19.90;99.90;;;;;;4933803;29;20043;-83
2021/06/19 13:40:07;;;;;;;3.28;3.05;;;19.70;99.90;;;;;;4932690;29;20047;-84
2021/06/19 13:42:52;;;;;;;5.45;3.65;;;19.60;99.90;;;;;;4930246;29;20462;-83
2021/06/19 13:45:19;;;;;;;4.50;3.42;;;19.50;99.90;;;;;;4930782;29;20586;-83
2021/06/19 13:47:45;;;;;;;5.25;3.83;;;19.40;99.90;;;;;;4914691;29;20043;-85
2021/06/19 13:50:14;;;;;;;5.60;3.70;;;19.30;99.90;;;;;;4932102;29;20079;-84
2021/06/19 13:52:41;;;;;;;4.47;3.92;;;19.20;99.90;;;;;;4926905;28;20388;-83
2021/06/19 13:55:10;;;;;;;4.72;3.92;;;19.20;99.90;;;;;;4913975;29;20059;-83
2021/06/19 13:57:39;;;;;;;5.15;3.80;;;19.10;99.90;;;;;;4914242;29;20047;-84
2021/06/19 14:00:06;;;;;;;6.82;4.45;;;19.10;99.90;;;;;;4930200;29;20507;-85
2021/06/19 14:02:34;;;;;;;5.90;4.68;;;19.00;99.90;;;;;;4914924;29;20459;-84
2021/06/19 14:05:01;;;;;;;5.85;4.53;;;18.90;99.90;;;;;;4935205;29;20582;-83
2021/06/19 14:07:28;;;;;;;5.22;4.55;;;18.90;99.90;;;;;;4930845;29;20507;-82
2021/06/19 14:09:55;;;;;;;4.97;4.53;;;18.80;99.90;;;;;;4932013;29;20138;-83
2021/06/19 14:12:22;;;;;;;5.00;4.60;;;18.80;99.90;;;;;;4913947;29;20051;-82
2021/06/19 14:14:49;;;;;;;6.10;4.93;;;18.80;99.90;;;;;;4919527;29;20134;-84
2021/06/19 14:17:17;;;;;;;8.77;5.53;;;18.70;99.90;;;;;;4927817;29;20055;-82
2021/06/19 14:19:44;;;;;;;5.45;4.95;;;18.80;99.90;;;;;;4919824;29;20063;-82
2021/06/19 14:22:11;;;;;;;6.30;5.57;;;18.80;99.90;;;;;;4919197;29;20051;-84
2021/06/19 14:24:38;;;;;;;7.22;5.05;;;18.70;99.90;;;;;;4939841;29;20071;-83
2021/06/19 14:27:07;;;;;;;6.07;5.47;;;18.80;99.90;;;;;;4930656;29;20426;-84
2021/06/19 14:29:34;;;;;;;6.20;5.18;;;18.80;99.90;;;;;;4926304;29;20057;-80
2021/06/19 14:32:02;;;;;;;5.95;5.40;;;18.80;99.90;;;;;;4917893;29;20463;-82
2021/06/19 14:34:31;;;;;;;6.00;5.40;;;18.70;99.90;;;;;;4937042;29;20502;-85
2021/06/19 14:36:58;;;;;;;7.20;5.60;;;18.70;99.90;;;;;;4931480;29;20089;-82
2021/06/19 14:39:25;;;;;;;5.82;4.93;;;18.70;99.90;;;;;;4947288;29;20394;-83
2021/06/19 14:41:52;;;;;;;6.32;5.72;;;18.70;99.90;;;;;;4948316;29;20059;-81
2021/06/19 14:44:19;;;;;;;7.47;6.10;;;18.80;99.90;;;;;;4923868;29;20078;-84
2021/06/19 14:46:46;;;;;;;6.35;5.40;;;18.80;99.90;;;;;;4945134;29;20387;-82
2021/06/19 14:49:13;;;;;;;6.57;6.07;;;18.80;99.90;;;;;;4939587;29;20062;-82
2021/06/19 14:51:39;;;;;;;6.30;5.70;;;18.80;99.90;;;;;;4928712;29;20110;-84
2021/06/19 14:54:06;;;;;;;7.50;6.60;;;18.80;99.90;;;;;;4946937;28;20051;-90
2021/06/19 14:56:33;;;;;;;6.97;6.28;;;18.90;99.90;;;;;;4937247;29;20048;-80
2021/06/19 14:59:00;;;;;;;6.22;5.72;;;18.90;99.90;;;;;;4943421;29;20139;-83
2021/06/19 15:01:28;;;;;;;6.72;5.93;;;19.00;99.90;;;;;;4924629;29;20524;-82
2021/06/19 15:03:55;;;;;;;7.10;6.25;;;19.10;99.90;;;;;;4931194;29;20055;-83
2021/06/19 15:06:22;;;;;;;6.20;5.55;;;19.20;99.90;;;;;;4942801;29;20110;-84
2021/06/19 15:08:56;;;;;;;5.68;5.07;;;19.30;99.90;;;;;;4923746;29;20051;-82
2021/06/19 15:11:23;;;;;;;6.30;5.55;;;19.40;99.90;;;;;;4921344;29;20055;-82
2021/06/19 15:13:50;;;;;;;6.53;5.30;;;19.50;99.90;;;;;;4926122;29;20125;-80
2021/06/19 15:16:17;;;;;;;6.05;5.40;;;19.60;99.90;;;;;;4936284;29;20059;-80
2021/06/19 15:18:46;;;;;;;6.38;5.78;;;19.60;99.90;;;;;;4940084;29;20056;-82
2021/06/19 15:21:12;;;;;;;6.15;5.55;;;19.60;99.90;;;;;;4920122;29;20076;-81
2021/06/19 15:23:40;;;;;;;7.53;5.47;;;19.60;99.90;;;;;;4941079;29;20043;-83
2021/06/19 15:26:07;;;;;;;5.68;5.18;;;19.60;99.90;;;;;;4916165;29;20079;-84
2021/06/19 15:28:34;;;;;;;7.55;5.80;;;19.60;99.90;;;;;;4917043;29;20110;-80
2021/06/19 15:31:01;;;;;;;6.57;5.97;;;19.70;99.90;;;;;;4916814;29;20043;-82
2021/06/19 15:33:28;;;;;;;5.95;5.35;;;19.70;99.90;;;;;;4930061;29;20134;-80
2021/06/19 15:35:55;;;;;;;8.40;5.72;;;19.80;99.90;;;;;;4933266;29;20106;-85
2021/06/19 15:38:22;;;;;;;5.45;4.85;;;19.90;99.90;;;;;;4915593;29;20119;-81
2021/06/19 15:40:49;;;;;;;5.95;4.40;;;20.00;99.90;;;;;;4912554;29;20499;-83
2021/06/19 15:43:16;;;;;;;7.72;4.30;;;20.00;99.90;;;;;;4912765;29;20525;-81
2021/06/19 15:45:42;;;;;;;5.75;4.32;;;20.00;99.90;;;;;;4928140;29;20048;-82
2021/06/19 15:48:10;;;;;;;5.35;4.68;;;20.00;99.90;;;;;;4928157;29;20070;-83
2021/06/19 15:50:37;;;;;;;4.85;4.30;;;20.00;99.90;;;;;;4939148;29;20047;-81
2021/06/19 15:53:04;;;;;;;6.43;3.65;;;20.10;99.90;;;;;;4925423;29;20463;-84
2021/06/19 15:55:30;;;;;;;4.82;3.92;;;20.10;99.90;;;;;;4946039;29;20526;-87
2021/06/19 15:57:57;;;;;;;6.50;4.00;;;20.20;99.90;;;;;;4934720;29;20047;-81
2021/06/19 16:00:24;;;;;;;5.45;4.22;;;20.20;99.90;;;;;;4940458;29;20072;-80
2021/06/19 16:02:51;;;;;;;7.20;3.70;;;20.20;99.90;;;;;;4945563;29;20114;-80
2021/06/19 16:05:18;;;;;;;5.88;3.67;;;20.20;99.90;;;;;;4923316;29;20404;-81
2021/06/19 16:07:47;;;;;;;8.05;4.95;;;20.20;99.90;;;;;;4933401;29;20044;-81
2021/06/19 16:10:14;;;;;;;7.07;3.72;;;20.20;99.90;;;;;;4931370;29;20051;-80
2021/06/19 16:12:42;;;;;;;8.50;4.13;;;20.20;99.90;;;;;;4950495;29;20506;-83
2021/06/19 16:15:10;;;;;;;5.85;3.28;;;20.30;99.90;;;;;;4923778;29;20548;-80
2021/06/19 16:17:37;;;;;;;7.40;3.33;;;20.50;99.90;;;;;;4936376;29;20100;-82
2021/06/19 16:20:04;;;;;;;6.70;3.75;;;20.70;99.90;;;;;;4947606;29;20440;-82
2021/06/19 16:22:32;;;;;;;5.90;3.55;;;20.70;99.90;;;;;;4949188;29;20110;-82
2021/06/19 16:25:02;;;;;;;6.00;3.03;;;20.80;99.90;;;;;;4951041;29;20051;-81
2021/06/19 16:27:29;;;;;;;5.70;3.13;;;20.80;99.90;;;;;;4929322;29;20052;-82
2021/06/19 16:29:56;;;;;;;4.53;3.08;;;20.80;99.90;;;;;;4918222;29;20506;-81
2021/06/19 16:32:23;;;;;;;4.95;2.97;;;20.80;99.90;;;;;;4931864;29;20523;-81
2021/06/19 16:34:52;;;;;;;4.03;2.45;;;20.90;99.90;;;;;;4934070;29;20143;-81
2021/06/19 16:37:21;;;;;;;5.03;2.53;;;20.90;99.90;;;;;;4931679;29;20051;-81
2021/06/19 16:39:52;;;;;;;7.13;3.08;;;20.90;99.90;;;;;;4929161;29;20102;-81
2021/06/19 16:42:19;;;;;;;8.13;2.88;;;21.00;99.90;;;;;;4921823;29;20051;-80
2021/06/19 16:44:45;;;;;;;6.32;3.35;;;21.00;99.90;;;;;;4918201;29;20064;-79
2021/06/19 16:47:12;;;;;;;6.00;3.45;;;20.90;99.90;;;;;;4932155;29;20047;-80
2021/06/19 16:49:40;;;;;;;8.63;4.20;;;20.80;99.90;;;;;;4941485;29;20052;-81
2021/06/19 16:52:08;;;;;;;7.37;4.00;;;20.60;99.90;;;;;;4927473;29;20146;-81
2021/06/19 16:54:38;;;;;;;5.97;3.47;;;20.50;99.90;;;;;;4916948;29;20533;-79
2021/06/19 16:57:07;;;;;;;8.30;4.05;;;20.30;99.90;;;;;;4924914;29;20064;-81
2021/06/19 16:59:33;;;;;;;10.88;4.43;;;20.20;99.90;;;;;;4941036;29;20597;-80
2021/06/19 17:02:00;;;;;;;9.93;3.97;;;20.10;99.90;;;;;;4938731;29;20098;-80
2021/06/19 17:04:27;;;;;;;7.95;3.90;;;20.10;99.90;;;;;;4932077;29;20099;-80
2021/06/19 17:06:54;;;;;;;7.72;3.47;;;20.00;99.90;;;;;;4918124;29;20500;-80
2021/06/19 17:09:23;;;;;;;;;;;19.90;99.90;;;;;;4929958;29;20503;-80
2021/06/19 17:11:50;;;;;;;8.23;3.25;;;19.90;99.90;;;;;;4941186;29;19922;-79
2021/06/19 17:14:16;;;;;;;5.38;3.20;;;20.10;99.90;;;;;;4934861;29;20111;-80
2021/06/19 17:16:43;;;;;;;3.75;2.40;;;20.30;99.90;;;;;;4929006;29;20067;-80
2021/06/19 17:19:10;;;;;;;7.00;2.85;;;20.50;99.90;;;;;;4918508;29;20056;-81
2021/06/19 17:21:37;;;;;;;5.20;3.05;;;20.70;99.90;;;;;;4933664;29;20409;-81
2021/06/19 17:24:04;;;;;;;6.25;3.00;;;20.80;99.90;;;;;;4936670;29;20115;-83
2021/06/19 17:26:32;;;;;;;4.40;2.50;;;20.80;99.90;;;;;;4921027;29;20095;-80
2021/06/19 17:28:59;;;;;;;5.05;2.80;;;20.70;99.90;;;;;;4920026;29;20048;-81
2021/06/19 17:31:26;;;;;;;8.60;3.10;;;20.60;99.90;;;;;;4919237;29;20075;-80
2021/06/19 17:33:53;;;;;;;6.43;3.10;;;20.50;99.90;;;;;;4932123;29;20443;-81
2021/06/19 17:36:20;;;;;;;6.88;3.28;;;20.30;99.90;;;;;;4929353;29;20039;-80
2021/06/19 17:38:47;;;;;;;5.53;2.80;;;20.30;99.90;;;;;;4916829;29;20091;-82
2021/06/19 17:45:39;;;;;;;7.53;3.08;;;20.20;99.90;;;;;;4975005;27;1063694;-80
2021/06/19 17:49:08;;;;;;;4.38;3.13;;;20.20;99.90;;;;;;4859120;29;20040;-83
2021/06/19 17:52:35;;;;;;;6.65;3.05;;;20.10;99.90;;;;;;4862885;29;20047;-85
2021/06/19 17:55:57;;;;;;;9.10;3.70;;;20.10;99.90;;;;;;4806100;29;20428;-81
2021/06/19 18:10:40;;;;;;;7.18;4.32;;;19.40;99.90;;;;;;4698820;29;20592;-85
2021/06/19 18:20:21;;;;;;;7.80;4.53;;;18.90;99.90;;;;;;4899853;29;20552;-81
2021/06/19 18:22:50;;;;;;;6.00;4.50;;;18.80;99.90;;;;;;4925998;29;20107;-81
2021/06/19 18:25:17;;;;;;;6.25;4.32;;;18.80;99.90;;;;;;4924404;29;20056;-81
2021/06/19 18:27:44;;;;;;;7.38;5.00;;;18.70;99.90;;;;;;4923915;29;20044;-81
2021/06/19 18:30:14;;;;;;;6.38;3.78;;;18.70;99.90;;;;;;4924293;29;20048;-81
2021/06/19 18:32:43;;;;;;;7.63;4.75;;;18.70;99.90;;;;;;4926553;29;20056;-81
2021/06/19 18:35:10;;;;;;;5.87;4.20;;;18.60;99.90;;;;;;4912946;28;20052;-82
2021/06/19 18:37:37;;;;;;;6.90;4.18;;;18.50;99.90;;;;;;4915913;29;20344;-80
2021/06/19 18:40:05;;;;;;;8.57;4.32;;;18.40;99.90;;;;;;4921604;28;20047;-81
2021/06/19 18:42:32;;;;;;;6.75;4.82;;;18.30;99.90;;;;;;4924807;28;20387;-80
2021/06/19 18:44:59;;;;;;;6.22;4.85;;;18.20;99.90;;;;;;4924627;29;20048;-80
2021/06/19 18:47:26;;;;;;;7.68;4.25;;;18.20;99.90;;;;;;4929600;28;20491;-79
2021/06/19 18:49:53;;;;;;;7.47;4.90;;;18.10;99.90;;;;;;4929530;29;20084;-81
2021/06/19 18:52:23;;;;;;;8.13;4.57;;;18.00;99.90;;;;;;4916475;28;20124;-82
2021/06/19 18:54:50;;;;;;;10.10;5.13;;;18.00;99.90;;;;;;4909597;29;20572;-80
2021/06/19 18:57:26;;;;;;;6.53;4.55;;;17.90;99.90;;;;;;4902127;29;20048;-79
2021/06/19 18:59:53;;;;;;;12.55;4.78;;;17.80;99.90;;;;;;4913585;29;20128;-80
2021/06/19 19:02:21;;;;;;;13.13;6.22;;;17.80;99.90;;;;;;4915690;29;20056;-81
2021/06/19 19:04:52;;;;;;;9.07;5.88;;;17.70;99.90;;;;;;4912695;29;20100;-80
2021/06/19 19:07:20;;;;;;;9.20;6.40;;;17.70;99.90;;;;;;4904076;29;20044;-80
2021/06/19 19:09:47;;;;;;;7.85;5.45;;;17.70;99.90;;;;;;4905413;29;20041;-79
2021/06/19 19:12:14;;;;;;;8.85;5.30;;;17.60;99.90;;;;;;4904868;29;20044;-83
2021/06/19 19:14:42;;;;;;;6.72;4.00;;;17.50;99.90;;;;;;4908987;29;20097;-80
2021/06/19 19:17:10;;;;;;;5.07;3.53;;;17.50;99.90;;;;;;4917059;29;20096;-81
2021/06/19 19:19:38;;;;;;;7.20;3.20;;;17.50;99.90;;;;;;4918405;29;20099;-80
2021/06/19 19:22:05;;;;;;;6.85;3.20;;;17.40;99.90;;;;;;4928363;28;20055;-80
2021/06/19 19:24:35;;;;;;;7.53;3.50;;;17.30;99.90;;;;;;4926039;29;20048;-80
2021/06/19 19:27:05;;;;;;;8.25;3.65;;;17.20;99.90;;;;;;4919087;29;20161;-81
2021/06/19 19:29:34;;;;;;;5.78;3.20;;;17.10;99.90;;;;;;4950286;28;20044;-83